sensor_id;sensor_type;location;lat;lon;timestamp;P1;durP1;ratioP1;P2;durP2;ratioP2
8421;SDS011;4248;48.196;10.924;2024-03-29T00:00:58;4.60;;;1.77;;
8421;SDS011;4248;48.196;10.924;2024-03-29T00:03:27;2.90;;;1.60;;
8421;SDS011;4248;48.196;10.924;2024-03-29T00:05:52;6.57;;;3.20;;
8421;SDS011;4248;48.196;10.924;2024-03-29T00:08:18;3.47;;;1.70;;
8421;SDS011;4248;48.196;10.924;2024-03-29T00:10:46;2.20;;;1.10;;
8421;SDS011;4248;48.196;10.924;2024-03-29T00:13:12;6.27;;;1.70;;
8421;SDS011;4248;48.196;10.924;2024-03-29T00:15:38;2.60;;;1.07;;
8421;SDS011;4248;48.196;10.924;2024-03-29T00:18:03;2.30;;;1.07;;
8421;SDS011;4248;48.196;10.924;2024-03-29T00:20:29;2.40;;;1.23;;
8421;SDS011;4248;48.196;10.924;2024-03-29T00:22:55;1.57;;;0.90;;
8421;SDS011;4248;48.196;10.924;2024-03-29T00:25:21;3.70;;;1.47;;
8421;SDS011;4248;48.196;10.924;2024-03-29T00:27:47;2.57;;;1.30;;
8421;SDS011;4248;48.196;10.924;2024-03-29T00:30:13;2.10;;;0.90;;
8421;SDS011;4248;48.196;10.924;2024-03-29T00:32:39;2.23;;;1.10;;
8421;SDS011;4248;48.196;10.924;2024-03-29T00:35:05;2.70;;;1.10;;
8421;SDS011;4248;48.196;10.924;2024-03-29T00:37:31;1.40;;;0.90;;
8421;SDS011;4248;48.196;10.924;2024-03-29T00:39:57;2.60;;;1.10;;
8421;SDS011;4248;48.196;10.924;2024-03-29T00:42:24;2.17;;;1.00;;
8421;SDS011;4248;48.196;10.924;2024-03-29T00:44:50;1.30;;;0.70;;
8421;SDS011;4248;48.196;10.924;2024-03-29T00:47:16;1.80;;;0.90;;
8421;SDS011;4248;48.196;10.924;2024-03-29T00:49:41;1.60;;;0.80;;
8421;SDS011;4248;48.196;10.924;2024-03-29T00:52:07;1.70;;;1.00;;
8421;SDS011;4248;48.196;10.924;2024-03-29T00:54:33;1.40;;;0.80;;
8421;SDS011;4248;48.196;10.924;2024-03-29T00:56:59;2.30;;;0.80;;
8421;SDS011;4248;48.196;10.924;2024-03-29T00:59:24;1.77;;;0.80;;
8421;SDS011;4248;48.196;10.924;2024-03-29T01:01:50;1.27;;;0.77;;
8421;SDS011;4248;48.196;10.924;2024-03-29T01:04:16;1.10;;;0.70;;
8421;SDS011;4248;48.196;10.924;2024-03-29T01:06:42;1.33;;;0.70;;
8421;SDS011;4248;48.196;10.924;2024-03-29T01:09:08;1.20;;;0.70;;
8421;SDS011;4248;48.196;10.924;2024-03-29T01:11:36;2.00;;;0.90;;
8421;SDS011;4248;48.196;10.924;2024-03-29T01:14:06;0.90;;;0.60;;
8421;SDS011;4248;48.196;10.924;2024-03-29T01:16:32;1.63;;;0.73;;
8421;SDS011;4248;48.196;10.924;2024-03-29T01:18:58;1.40;;;0.80;;
8421;SDS011;4248;48.196;10.924;2024-03-29T01:21:24;1.30;;;0.70;;
8421;SDS011;4248;48.196;10.924;2024-03-29T01:23:50;1.60;;;0.70;;
8421;SDS011;4248;48.196;10.924;2024-03-29T01:26:16;3.40;;;1.20;;
8421;SDS011;4248;48.196;10.924;2024-03-29T01:28:42;1.30;;;0.80;;
8421;SDS011;4248;48.196;10.924;2024-03-29T01:31:08;1.00;;;0.60;;
8421;SDS011;4248;48.196;10.924;2024-03-29T01:33:34;2.37;;;0.67;;
8421;SDS011;4248;48.196;10.924;2024-03-29T01:36:06;1.07;;;0.60;;
8421;SDS011;4248;48.196;10.924;2024-03-29T01:38:32;1.10;;;0.70;;
8421;SDS011;4248;48.196;10.924;2024-03-29T01:40:58;1.20;;;0.67;;
8421;SDS011;4248;48.196;10.924;2024-03-29T01:43:24;1.60;;;0.80;;
8421;SDS011;4248;48.196;10.924;2024-03-29T01:45:50;1.43;;;0.70;;
8421;SDS011;4248;48.196;10.924;2024-03-29T01:48:18;1.00;;;0.60;;
8421;SDS011;4248;48.196;10.924;2024-03-29T01:50:47;1.73;;;0.77;;
8421;SDS011;4248;48.196;10.924;2024-03-29T01:53:13;1.10;;;0.63;;
8421;SDS011;4248;48.196;10.924;2024-03-29T01:55:40;1.00;;;0.70;;
8421;SDS011;4248;48.196;10.924;2024-03-29T01:58:07;1.10;;;0.70;;
8421;SDS011;4248;48.196;10.924;2024-03-29T02:00:34;1.30;;;0.80;;
8421;SDS011;4248;48.196;10.924;2024-03-29T02:03:03;1.30;;;0.70;;
8421;SDS011;4248;48.196;10.924;2024-03-29T02:05:34;1.35;;;0.77;;
8421;SDS011;4248;48.196;10.924;2024-03-29T02:08:00;1.20;;;0.70;;
8421;SDS011;4248;48.196;10.924;2024-03-29T02:10:26;1.30;;;0.70;;
8421;SDS011;4248;48.196;10.924;2024-03-29T02:12:52;1.43;;;0.70;;
8421;SDS011;4248;48.196;10.924;2024-03-29T02:15:18;1.30;;;0.80;;
8421;SDS011;4248;48.196;10.924;2024-03-29T02:17:43;1.20;;;0.60;;
8421;SDS011;4248;48.196;10.924;2024-03-29T02:20:09;2.03;;;0.70;;
8421;SDS011;4248;48.196;10.924;2024-03-29T02:22:36;1.47;;;0.83;;
8421;SDS011;4248;48.196;10.924;2024-03-29T02:25:05;1.00;;;0.60;;
8421;SDS011;4248;48.196;10.924;2024-03-29T02:27:31;1.53;;;0.70;;
8421;SDS011;4248;48.196;10.924;2024-03-29T02:29:57;1.30;;;0.70;;
8421;SDS011;4248;48.196;10.924;2024-03-29T02:32:23;2.07;;;0.97;;
8421;SDS011;4248;48.196;10.924;2024-03-29T02:34:49;1.57;;;0.80;;
8421;SDS011;4248;48.196;10.924;2024-03-29T02:37:15;2.90;;;0.80;;
8421;SDS011;4248;48.196;10.924;2024-03-29T02:39:41;1.60;;;0.70;;
8421;SDS011;4248;48.196;10.924;2024-03-29T02:42:07;1.07;;;0.70;;
8421;SDS011;4248;48.196;10.924;2024-03-29T02:44:33;1.20;;;0.67;;
8421;SDS011;4248;48.196;10.924;2024-03-29T02:46:59;1.63;;;0.80;;
8421;SDS011;4248;48.196;10.924;2024-03-29T02:49:25;1.37;;;0.70;;
8421;SDS011;4248;48.196;10.924;2024-03-29T02:51:51;1.20;;;0.60;;
8421;SDS011;4248;48.196;10.924;2024-03-29T02:54:18;1.17;;;0.63;;
8421;SDS011;4248;48.196;10.924;2024-03-29T02:56:43;1.10;;;0.70;;
8421;SDS011;4248;48.196;10.924;2024-03-29T02:59:09;1.60;;;0.80;;
8421;SDS011;4248;48.196;10.924;2024-03-29T03:01:35;1.20;;;0.60;;
8421;SDS011;4248;48.196;10.924;2024-03-29T03:04:02;1.00;;;0.60;;
8421;SDS011;4248;48.196;10.924;2024-03-29T03:06:28;1.20;;;0.70;;
8421;SDS011;4248;48.196;10.924;2024-03-29T03:08:54;1.00;;;0.60;;
8421;SDS011;4248;48.196;10.924;2024-03-29T03:11:38;1.57;;;0.70;;
8421;SDS011;4248;48.196;10.924;2024-03-29T03:14:04;1.20;;;0.70;;
8421;SDS011;4248;48.196;10.924;2024-03-29T03:16:30;1.47;;;0.83;;
8421;SDS011;4248;48.196;10.924;2024-03-29T03:18:55;1.10;;;0.70;;
8421;SDS011;4248;48.196;10.924;2024-03-29T03:21:21;1.57;;;0.70;;
8421;SDS011;4248;48.196;10.924;2024-03-29T03:23:47;0.90;;;0.50;;
8421;SDS011;4248;48.196;10.924;2024-03-29T03:26:12;2.47;;;0.70;;
8421;SDS011;4248;48.196;10.924;2024-03-29T03:28:38;1.37;;;0.70;;
8421;SDS011;4248;48.196;10.924;2024-03-29T03:31:04;1.27;;;0.70;;
8421;SDS011;4248;48.196;10.924;2024-03-29T03:33:32;1.05;;;0.60;;
8421;SDS011;4248;48.196;10.924;2024-03-29T03:35:58;2.17;;;0.80;;
8421;SDS011;4248;48.196;10.924;2024-03-29T03:38:23;1.00;;;0.60;;
8421;SDS011;4248;48.196;10.924;2024-03-29T03:40:49;1.50;;;0.83;;
8421;SDS011;4248;48.196;10.924;2024-03-29T03:43:15;1.00;;;0.60;;
8421;SDS011;4248;48.196;10.924;2024-03-29T03:45:41;1.23;;;0.77;;
8421;SDS011;4248;48.196;10.924;2024-03-29T03:48:09;1.40;;;0.67;;
8421;SDS011;4248;48.196;10.924;2024-03-29T03:50:36;1.40;;;0.70;;
8421;SDS011;4248;48.196;10.924;2024-03-29T03:53:02;1.10;;;0.70;;
8421;SDS011;4248;48.196;10.924;2024-03-29T03:55:28;1.47;;;0.70;;
8421;SDS011;4248;48.196;10.924;2024-03-29T03:57:54;1.63;;;0.70;;
8421;SDS011;4248;48.196;10.924;2024-03-29T04:00:20;1.50;;;0.70;;
8421;SDS011;4248;48.196;10.924;2024-03-29T04:02:48;1.20;;;0.70;;
8421;SDS011;4248;48.196;10.924;2024-03-29T04:05:14;1.70;;;0.90;;
8421;SDS011;4248;48.196;10.924;2024-03-29T04:07:40;1.10;;;0.60;;
8421;SDS011;4248;48.196;10.924;2024-03-29T04:10:06;2.30;;;1.30;;
8421;SDS011;4248;48.196;10.924;2024-03-29T04:12:31;1.83;;;0.87;;
8421;SDS011;4248;48.196;10.924;2024-03-29T04:14:57;1.40;;;0.90;;
8421;SDS011;4248;48.196;10.924;2024-03-29T04:17:23;1.50;;;0.70;;
8421;SDS011;4248;48.196;10.924;2024-03-29T04:19:49;1.00;;;0.67;;
8421;SDS011;4248;48.196;10.924;2024-03-29T04:22:15;1.30;;;0.70;;
8421;SDS011;4248;48.196;10.924;2024-03-29T04:24:41;1.97;;;0.63;;
8421;SDS011;4248;48.196;10.924;2024-03-29T04:27:06;1.00;;;0.60;;
8421;SDS011;4248;48.196;10.924;2024-03-29T04:29:32;1.07;;;0.67;;
8421;SDS011;4248;48.196;10.924;2024-03-29T04:31:58;0.97;;;0.57;;
8421;SDS011;4248;48.196;10.924;2024-03-29T04:34:24;1.30;;;0.70;;
8421;SDS011;4248;48.196;10.924;2024-03-29T04:36:50;2.20;;;1.10;;
8421;SDS011;4248;48.196;10.924;2024-03-29T04:39:16;1.60;;;1.10;;
8421;SDS011;4248;48.196;10.924;2024-03-29T04:41:42;2.50;;;1.17;;
8421;SDS011;4248;48.196;10.924;2024-03-29T04:44:07;1.40;;;0.90;;
8421;SDS011;4248;48.196;10.924;2024-03-29T04:46:33;1.50;;;0.60;;
8421;SDS011;4248;48.196;10.924;2024-03-29T04:48:59;1.00;;;0.60;;
8421;SDS011;4248;48.196;10.924;2024-03-29T04:51:25;1.00;;;0.60;;
8421;SDS011;4248;48.196;10.924;2024-03-29T04:53:51;1.73;;;0.70;;
8421;SDS011;4248;48.196;10.924;2024-03-29T04:56:17;1.23;;;0.73;;
8421;SDS011;4248;48.196;10.924;2024-03-29T04:58:43;1.07;;;0.70;;
8421;SDS011;4248;48.196;10.924;2024-03-29T05:01:11;1.27;;;0.70;;
8421;SDS011;4248;48.196;10.924;2024-03-29T05:03:37;1.00;;;0.60;;
8421;SDS011;4248;48.196;10.924;2024-03-29T05:06:03;1.10;;;0.60;;
8421;SDS011;4248;48.196;10.924;2024-03-29T05:08:29;0.90;;;0.60;;
8421;SDS011;4248;48.196;10.924;2024-03-29T05:10:55;2.40;;;1.10;;
8421;SDS011;4248;48.196;10.924;2024-03-29T05:13:21;2.30;;;1.00;;
8421;SDS011;4248;48.196;10.924;2024-03-29T05:15:47;4.03;;;1.20;;
8421;SDS011;4248;48.196;10.924;2024-03-29T05:18:13;4.07;;;1.30;;
8421;SDS011;4248;48.196;10.924;2024-03-29T05:20:39;3.50;;;1.13;;
8421;SDS011;4248;48.196;10.924;2024-03-29T05:23:06;1.33;;;0.90;;
8421;SDS011;4248;48.196;10.924;2024-03-29T05:25:32;1.13;;;0.80;;
8421;SDS011;4248;48.196;10.924;2024-03-29T05:27:58;1.83;;;0.90;;
8421;SDS011;4248;48.196;10.924;2024-03-29T05:30:24;3.20;;;1.20;;
8421;SDS011;4248;48.196;10.924;2024-03-29T05:32:49;3.30;;;2.23;;
8421;SDS011;4248;48.196;10.924;2024-03-29T05:35:15;3.80;;;2.80;;
8421;SDS011;4248;48.196;10.924;2024-03-29T05:37:41;3.30;;;2.53;;
8421;SDS011;4248;48.196;10.924;2024-03-29T05:40:08;3.87;;;2.53;;
8421;SDS011;4248;48.196;10.924;2024-03-29T05:42:33;2.40;;;1.90;;
8421;SDS011;4248;48.196;10.924;2024-03-29T05:45:00;2.30;;;1.20;;
8421;SDS011;4248;48.196;10.924;2024-03-29T05:47:26;2.03;;;1.20;;
8421;SDS011;4248;48.196;10.924;2024-03-29T05:49:53;3.67;;;1.20;;
8421;SDS011;4248;48.196;10.924;2024-03-29T05:52:19;2.70;;;1.17;;
8421;SDS011;4248;48.196;10.924;2024-03-29T05:54:45;1.70;;;0.80;;
8421;SDS011;4248;48.196;10.924;2024-03-29T05:57:11;1.17;;;0.70;;
8421;SDS011;4248;48.196;10.924;2024-03-29T05:59:37;1.50;;;0.80;;
8421;SDS011;4248;48.196;10.924;2024-03-29T06:02:04;2.13;;;0.83;;
8421;SDS011;4248;48.196;10.924;2024-03-29T06:04:30;1.20;;;0.70;;
8421;SDS011;4248;48.196;10.924;2024-03-29T06:07:00;1.83;;;1.20;;
8421;SDS011;4248;48.196;10.924;2024-03-29T06:09:27;7.23;;;4.03;;
8421;SDS011;4248;48.196;10.924;2024-03-29T06:11:56;7.47;;;3.53;;
8421;SDS011;4248;48.196;10.924;2024-03-29T06:14:25;30.27;;;12.80;;
8421;SDS011;4248;48.196;10.924;2024-03-29T06:17:10;15.43;;;7.50;;
8421;SDS011;4248;48.196;10.924;2024-03-29T06:19:48;3.90;;;2.10;;
8421;SDS011;4248;48.196;10.924;2024-03-29T06:22:15;4.90;;;1.30;;
8421;SDS011;4248;48.196;10.924;2024-03-29T06:24:42;1.20;;;0.70;;
8421;SDS011;4248;48.196;10.924;2024-03-29T06:27:09;1.93;;;0.83;;
8421;SDS011;4248;48.196;10.924;2024-03-29T06:29:35;2.60;;;0.83;;
8421;SDS011;4248;48.196;10.924;2024-03-29T06:32:00;1.70;;;0.67;;
8421;SDS011;4248;48.196;10.924;2024-03-29T06:34:28;1.07;;;0.60;;
8421;SDS011;4248;48.196;10.924;2024-03-29T06:36:55;1.57;;;0.70;;
8421;SDS011;4248;48.196;10.924;2024-03-29T06:39:21;1.20;;;0.60;;
8421;SDS011;4248;48.196;10.924;2024-03-29T06:41:46;1.93;;;0.67;;
8421;SDS011;4248;48.196;10.924;2024-03-29T06:44:12;4.27;;;0.73;;
8421;SDS011;4248;48.196;10.924;2024-03-29T06:46:38;1.17;;;0.60;;
8421;SDS011;4248;48.196;10.924;2024-03-29T06:49:04;1.20;;;0.70;;
8421;SDS011;4248;48.196;10.924;2024-03-29T06:51:31;1.67;;;0.80;;
8421;SDS011;4248;48.196;10.924;2024-03-29T06:53:57;1.60;;;0.90;;
8421;SDS011;4248;48.196;10.924;2024-03-29T06:56:23;1.70;;;0.80;;
8421;SDS011;4248;48.196;10.924;2024-03-29T06:58:48;2.40;;;0.83;;
8421;SDS011;4248;48.196;10.924;2024-03-29T07:01:15;1.83;;;0.90;;
8421;SDS011;4248;48.196;10.924;2024-03-29T07:03:40;2.10;;;0.80;;
8421;SDS011;4248;48.196;10.924;2024-03-29T07:06:06;1.70;;;0.73;;
8421;SDS011;4248;48.196;10.924;2024-03-29T07:08:32;1.83;;;0.90;;
8421;SDS011;4248;48.196;10.924;2024-03-29T07:11:01;3.00;;;1.10;;
8421;SDS011;4248;48.196;10.924;2024-03-29T07:13:28;3.20;;;1.37;;
8421;SDS011;4248;48.196;10.924;2024-03-29T07:15:56;3.20;;;1.90;;
8421;SDS011;4248;48.196;10.924;2024-03-29T07:18:22;4.30;;;1.97;;
8421;SDS011;4248;48.196;10.924;2024-03-29T07:20:48;3.13;;;1.40;;
8421;SDS011;4248;48.196;10.924;2024-03-29T07:23:14;2.53;;;1.47;;
8421;SDS011;4248;48.196;10.924;2024-03-29T07:25:40;3.10;;;1.30;;
8421;SDS011;4248;48.196;10.924;2024-03-29T07:28:06;2.80;;;1.60;;
8421;SDS011;4248;48.196;10.924;2024-03-29T07:30:32;1.90;;;1.00;;
8421;SDS011;4248;48.196;10.924;2024-03-29T07:32:57;1.83;;;0.90;;
8421;SDS011;4248;48.196;10.924;2024-03-29T07:35:23;2.47;;;1.00;;
8421;SDS011;4248;48.196;10.924;2024-03-29T07:37:49;1.67;;;0.90;;
8421;SDS011;4248;48.196;10.924;2024-03-29T07:40:16;2.60;;;1.00;;
8421;SDS011;4248;48.196;10.924;2024-03-29T07:42:41;2.00;;;0.90;;
8421;SDS011;4248;48.196;10.924;2024-03-29T07:45:07;3.43;;;1.10;;
8421;SDS011;4248;48.196;10.924;2024-03-29T07:47:33;1.77;;;0.83;;
8421;SDS011;4248;48.196;10.924;2024-03-29T07:49:59;2.63;;;1.10;;
8421;SDS011;4248;48.196;10.924;2024-03-29T07:52:24;2.10;;;1.10;;
8421;SDS011;4248;48.196;10.924;2024-03-29T07:54:50;3.27;;;1.63;;
8421;SDS011;4248;48.196;10.924;2024-03-29T07:57:16;4.43;;;2.53;;
8421;SDS011;4248;48.196;10.924;2024-03-29T07:59:42;2.20;;;1.10;;
8421;SDS011;4248;48.196;10.924;2024-03-29T08:02:08;4.63;;;1.30;;
8421;SDS011;4248;48.196;10.924;2024-03-29T08:04:34;1.90;;;0.80;;
8421;SDS011;4248;48.196;10.924;2024-03-29T08:06:59;4.87;;;1.67;;
8421;SDS011;4248;48.196;10.924;2024-03-29T08:09:25;3.60;;;1.57;;
8421;SDS011;4248;48.196;10.924;2024-03-29T08:11:51;2.67;;;1.30;;
8421;SDS011;4248;48.196;10.924;2024-03-29T08:14:17;2.50;;;1.30;;
8421;SDS011;4248;48.196;10.924;2024-03-29T08:16:42;4.30;;;1.70;;
8421;SDS011;4248;48.196;10.924;2024-03-29T08:19:08;3.67;;;1.70;;
8421;SDS011;4248;48.196;10.924;2024-03-29T08:21:34;4.10;;;1.27;;
8421;SDS011;4248;48.196;10.924;2024-03-29T08:24:00;3.20;;;1.23;;
8421;SDS011;4248;48.196;10.924;2024-03-29T08:26:27;2.20;;;1.00;;
8421;SDS011;4248;48.196;10.924;2024-03-29T08:28:54;2.20;;;1.00;;
8421;SDS011;4248;48.196;10.924;2024-03-29T08:31:20;4.10;;;1.17;;
8421;SDS011;4248;48.196;10.924;2024-03-29T08:33:46;2.63;;;0.90;;
8421;SDS011;4248;48.196;10.924;2024-03-29T08:36:12;4.97;;;1.23;;
8421;SDS011;4248;48.196;10.924;2024-03-29T08:38:38;2.33;;;1.10;;
8421;SDS011;4248;48.196;10.924;2024-03-29T08:41:07;2.40;;;1.27;;
8421;SDS011;4248;48.196;10.924;2024-03-29T08:43:33;2.47;;;1.40;;
8421;SDS011;4248;48.196;10.924;2024-03-29T08:45:59;2.30;;;1.20;;
8421;SDS011;4248;48.196;10.924;2024-03-29T08:48:25;2.17;;;1.20;;
8421;SDS011;4248;48.196;10.924;2024-03-29T08:50:52;2.40;;;0.90;;
8421;SDS011;4248;48.196;10.924;2024-03-29T08:53:17;3.07;;;1.20;;
8421;SDS011;4248;48.196;10.924;2024-03-29T08:55:45;2.43;;;1.00;;
8421;SDS011;4248;48.196;10.924;2024-03-29T08:58:11;2.30;;;1.00;;
8421;SDS011;4248;48.196;10.924;2024-03-29T09:00:37;2.97;;;1.17;;
8421;SDS011;4248;48.196;10.924;2024-03-29T09:03:03;2.00;;;1.00;;
8421;SDS011;4248;48.196;10.924;2024-03-29T09:05:29;2.30;;;1.30;;
8421;SDS011;4248;48.196;10.924;2024-03-29T09:07:55;2.20;;;1.03;;
8421;SDS011;4248;48.196;10.924;2024-03-29T09:10:21;2.57;;;1.30;;
8421;SDS011;4248;48.196;10.924;2024-03-29T09:12:51;3.30;;;1.70;;
8421;SDS011;4248;48.196;10.924;2024-03-29T09:15:17;3.90;;;1.77;;
8421;SDS011;4248;48.196;10.924;2024-03-29T09:17:43;3.13;;;1.30;;
8421;SDS011;4248;48.196;10.924;2024-03-29T09:20:09;2.20;;;1.00;;
8421;SDS011;4248;48.196;10.924;2024-03-29T09:22:36;2.50;;;1.10;;
8421;SDS011;4248;48.196;10.924;2024-03-29T09:25:03;2.43;;;1.10;;
8421;SDS011;4248;48.196;10.924;2024-03-29T09:27:29;2.63;;;1.20;;
8421;SDS011;4248;48.196;10.924;2024-03-29T09:29:55;2.13;;;0.90;;
8421;SDS011;4248;48.196;10.924;2024-03-29T09:32:21;2.40;;;1.40;;
8421;SDS011;4248;48.196;10.924;2024-03-29T09:34:47;2.70;;;1.23;;
8421;SDS011;4248;48.196;10.924;2024-03-29T09:37:13;3.50;;;1.23;;
8421;SDS011;4248;48.196;10.924;2024-03-29T09:39:39;2.87;;;1.30;;
8421;SDS011;4248;48.196;10.924;2024-03-29T09:42:04;3.53;;;1.20;;
8421;SDS011;4248;48.196;10.924;2024-03-29T09:44:32;2.30;;;1.27;;
8421;SDS011;4248;48.196;10.924;2024-03-29T09:47:02;2.87;;;1.20;;
8421;SDS011;4248;48.196;10.924;2024-03-29T09:49:29;2.63;;;1.17;;
8421;SDS011;4248;48.196;10.924;2024-03-29T09:51:56;2.50;;;1.13;;
8421;SDS011;4248;48.196;10.924;2024-03-29T09:54:23;2.23;;;1.00;;
8421;SDS011;4248;48.196;10.924;2024-03-29T09:56:51;2.43;;;1.27;;
8421;SDS011;4248;48.196;10.924;2024-03-29T09:59:17;4.27;;;1.60;;
8421;SDS011;4248;48.196;10.924;2024-03-29T10:01:42;3.20;;;1.60;;
8421;SDS011;4248;48.196;10.924;2024-03-29T10:04:08;3.83;;;1.87;;
8421;SDS011;4248;48.196;10.924;2024-03-29T10:06:34;3.57;;;1.90;;
8421;SDS011;4248;48.196;10.924;2024-03-29T10:09:03;5.77;;;1.97;;
8421;SDS011;4248;48.196;10.924;2024-03-29T10:11:29;4.67;;;2.37;;
8421;SDS011;4248;48.196;10.924;2024-03-29T10:13:55;2.97;;;1.30;;
8421;SDS011;4248;48.196;10.924;2024-03-29T10:16:21;2.50;;;1.10;;
8421;SDS011;4248;48.196;10.924;2024-03-29T10:18:49;3.03;;;1.10;;
8421;SDS011;4248;48.196;10.924;2024-03-29T10:21:15;5.23;;;1.40;;
8421;SDS011;4248;48.196;10.924;2024-03-29T10:23:41;3.00;;;1.00;;
8421;SDS011;4248;48.196;10.924;2024-03-29T10:26:08;5.33;;;1.40;;
8421;SDS011;4248;48.196;10.924;2024-03-29T10:28:34;3.73;;;1.27;;
8421;SDS011;4248;48.196;10.924;2024-03-29T10:31:02;2.53;;;1.17;;
8421;SDS011;4248;48.196;10.924;2024-03-29T10:33:28;2.10;;;1.00;;
8421;SDS011;4248;48.196;10.924;2024-03-29T10:36:01;2.83;;;1.30;;
8421;SDS011;4248;48.196;10.924;2024-03-29T10:38:31;3.30;;;1.50;;
8421;SDS011;4248;48.196;10.924;2024-03-29T10:40:57;2.40;;;1.13;;
8421;SDS011;4248;48.196;10.924;2024-03-29T10:43:22;5.40;;;1.43;;
8421;SDS011;4248;48.196;10.924;2024-03-29T10:45:49;5.73;;;1.73;;
8421;SDS011;4248;48.196;10.924;2024-03-29T10:48:23;5.90;;;1.57;;
8421;SDS011;4248;48.196;10.924;2024-03-29T10:50:51;4.10;;;1.37;;
8421;SDS011;4248;48.196;10.924;2024-03-29T10:53:19;3.10;;;1.33;;
8421;SDS011;4248;48.196;10.924;2024-03-29T10:55:47;3.77;;;1.50;;
8421;SDS011;4248;48.196;10.924;2024-03-29T10:58:15;2.97;;;1.40;;
8421;SDS011;4248;48.196;10.924;2024-03-29T11:00:47;2.93;;;1.50;;
8421;SDS011;4248;48.196;10.924;2024-03-29T11:03:24;3.70;;;1.23;;
8421;SDS011;4248;48.196;10.924;2024-03-29T11:06:03;3.00;;;1.30;;
8421;SDS011;4248;48.196;10.924;2024-03-29T11:08:34;3.43;;;1.23;;
8421;SDS011;4248;48.196;10.924;2024-03-29T11:11:07;3.47;;;1.50;;
8421;SDS011;4248;48.196;10.924;2024-03-29T11:13:34;2.33;;;1.30;;
8421;SDS011;4248;48.196;10.924;2024-03-29T11:16:09;3.23;;;1.47;;
8421;SDS011;4248;48.196;10.924;2024-03-29T11:18:36;3.53;;;1.50;;
8421;SDS011;4248;48.196;10.924;2024-03-29T11:21:03;3.27;;;1.60;;
8421;SDS011;4248;48.196;10.924;2024-03-29T11:23:33;2.83;;;1.50;;
8421;SDS011;4248;48.196;10.924;2024-03-29T11:25:59;3.70;;;1.40;;
8421;SDS011;4248;48.196;10.924;2024-03-29T11:28:32;4.13;;;1.50;;
8421;SDS011;4248;48.196;10.924;2024-03-29T11:31:03;2.73;;;1.43;;
8421;SDS011;4248;48.196;10.924;2024-03-29T11:33:35;3.77;;;1.73;;
8421;SDS011;4248;48.196;10.924;2024-03-29T11:36:14;4.37;;;1.40;;
8421;SDS011;4248;48.196;10.924;2024-03-29T11:38:48;4.80;;;1.77;;
8421;SDS011;4248;48.196;10.924;2024-03-29T11:41:17;4.20;;;1.40;;
8421;SDS011;4248;48.196;10.924;2024-03-29T11:43:48;2.77;;;1.33;;
8421;SDS011;4248;48.196;10.924;2024-03-29T11:46:15;2.83;;;1.40;;
8421;SDS011;4248;48.196;10.924;2024-03-29T11:48:43;4.70;;;1.70;;
8421;SDS011;4248;48.196;10.924;2024-03-29T11:51:15;3.20;;;1.53;;
8421;SDS011;4248;48.196;10.924;2024-03-29T11:53:42;4.20;;;1.30;;
8421;SDS011;4248;48.196;10.924;2024-03-29T11:56:08;2.77;;;1.50;;
8421;SDS011;4248;48.196;10.924;2024-03-29T11:58:34;3.10;;;1.67;;
8421;SDS011;4248;48.196;10.924;2024-03-29T12:01:00;3.10;;;1.57;;
8421;SDS011;4248;48.196;10.924;2024-03-29T12:03:30;3.80;;;1.20;;
8421;SDS011;4248;48.196;10.924;2024-03-29T12:05:57;3.27;;;1.53;;
8421;SDS011;4248;48.196;10.924;2024-03-29T12:08:26;2.97;;;1.40;;
8421;SDS011;4248;48.196;10.924;2024-03-29T12:10:57;3.90;;;1.67;;
8421;SDS011;4248;48.196;10.924;2024-03-29T12:13:23;3.33;;;1.53;;
8421;SDS011;4248;48.196;10.924;2024-03-29T12:15:48;4.10;;;1.60;;
8421;SDS011;4248;48.196;10.924;2024-03-29T12:18:14;3.23;;;1.40;;
8421;SDS011;4248;48.196;10.924;2024-03-29T12:20:41;3.20;;;1.20;;
8421;SDS011;4248;48.196;10.924;2024-03-29T12:23:08;4.60;;;2.03;;
8421;SDS011;4248;48.196;10.924;2024-03-29T12:25:36;5.13;;;1.50;;
8421;SDS011;4248;48.196;10.924;2024-03-29T12:28:02;3.17;;;1.47;;
8421;SDS011;4248;48.196;10.924;2024-03-29T12:30:28;4.70;;;1.60;;
8421;SDS011;4248;48.196;10.924;2024-03-29T12:32:59;5.10;;;1.57;;
8421;SDS011;4248;48.196;10.924;2024-03-29T12:35:26;3.67;;;1.57;;
8421;SDS011;4248;48.196;10.924;2024-03-29T12:37:52;3.43;;;1.27;;
8421;SDS011;4248;48.196;10.924;2024-03-29T12:40:19;2.27;;;1.00;;
8421;SDS011;4248;48.196;10.924;2024-03-29T12:42:48;3.50;;;1.53;;
8421;SDS011;4248;48.196;10.924;2024-03-29T12:45:14;2.80;;;1.30;;
8421;SDS011;4248;48.196;10.924;2024-03-29T12:47:39;2.50;;;1.10;;
8421;SDS011;4248;48.196;10.924;2024-03-29T12:50:05;4.97;;;1.40;;
8421;SDS011;4248;48.196;10.924;2024-03-29T12:52:37;3.43;;;1.50;;
8421;SDS011;4248;48.196;10.924;2024-03-29T12:55:06;3.27;;;1.40;;
8421;SDS011;4248;48.196;10.924;2024-03-29T12:57:35;2.57;;;1.37;;
8421;SDS011;4248;48.196;10.924;2024-03-29T13:00:03;2.53;;;1.13;;
8421;SDS011;4248;48.196;10.924;2024-03-29T13:02:34;4.53;;;1.47;;
8421;SDS011;4248;48.196;10.924;2024-03-29T13:05:03;4.30;;;1.50;;
8421;SDS011;4248;48.196;10.924;2024-03-29T13:07:32;2.70;;;1.33;;
8421;SDS011;4248;48.196;10.924;2024-03-29T13:09:59;2.80;;;1.33;;
8421;SDS011;4248;48.196;10.924;2024-03-29T13:12:28;3.80;;;1.23;;
8421;SDS011;4248;48.196;10.924;2024-03-29T13:14:55;3.97;;;1.50;;
8421;SDS011;4248;48.196;10.924;2024-03-29T13:17:20;2.80;;;1.20;;
8421;SDS011;4248;48.196;10.924;2024-03-29T13:19:46;4.17;;;1.47;;
8421;SDS011;4248;48.196;10.924;2024-03-29T13:22:12;2.77;;;1.20;;
8421;SDS011;4248;48.196;10.924;2024-03-29T13:24:37;3.00;;;1.30;;
8421;SDS011;4248;48.196;10.924;2024-03-29T13:27:03;3.43;;;1.30;;
8421;SDS011;4248;48.196;10.924;2024-03-29T13:29:29;4.27;;;1.27;;
8421;SDS011;4248;48.196;10.924;2024-03-29T13:31:55;3.47;;;1.20;;
8421;SDS011;4248;48.196;10.924;2024-03-29T13:34:21;4.57;;;1.30;;
8421;SDS011;4248;48.196;10.924;2024-03-29T13:36:47;3.27;;;1.30;;
8421;SDS011;4248;48.196;10.924;2024-03-29T13:39:13;3.10;;;1.20;;
8421;SDS011;4248;48.196;10.924;2024-03-29T13:41:40;3.33;;;1.00;;
8421;SDS011;4248;48.196;10.924;2024-03-29T13:44:06;3.47;;;1.37;;
8421;SDS011;4248;48.196;10.924;2024-03-29T13:46:34;4.20;;;1.33;;
8421;SDS011;4248;48.196;10.924;2024-03-29T13:49:00;3.30;;;1.10;;
8421;SDS011;4248;48.196;10.924;2024-03-29T13:51:27;2.77;;;1.20;;
8421;SDS011;4248;48.196;10.924;2024-03-29T13:53:53;3.30;;;1.10;;
8421;SDS011;4248;48.196;10.924;2024-03-29T13:56:21;4.97;;;1.10;;
8421;SDS011;4248;48.196;10.924;2024-03-29T13:58:47;2.43;;;1.10;;
8421;SDS011;4248;48.196;10.924;2024-03-29T14:01:13;3.17;;;1.27;;
8421;SDS011;4248;48.196;10.924;2024-03-29T14:03:39;2.80;;;0.90;;
8421;SDS011;4248;48.196;10.924;2024-03-29T14:06:04;3.97;;;1.17;;
8421;SDS011;4248;48.196;10.924;2024-03-29T14:08:31;3.17;;;1.20;;
8421;SDS011;4248;48.196;10.924;2024-03-29T14:11:00;2.10;;;0.90;;
8421;SDS011;4248;48.196;10.924;2024-03-29T14:13:26;4.20;;;1.30;;
8421;SDS011;4248;48.196;10.924;2024-03-29T14:15:52;3.23;;;1.00;;
8421;SDS011;4248;48.196;10.924;2024-03-29T14:18:18;2.77;;;0.90;;
8421;SDS011;4248;48.196;10.924;2024-03-29T14:20:44;3.60;;;1.23;;
8421;SDS011;4248;48.196;10.924;2024-03-29T14:23:09;2.57;;;1.10;;
8421;SDS011;4248;48.196;10.924;2024-03-29T14:25:37;3.03;;;1.10;;
8421;SDS011;4248;48.196;10.924;2024-03-29T14:28:03;6.27;;;1.37;;
8421;SDS011;4248;48.196;10.924;2024-03-29T14:30:29;3.03;;;1.30;;
8421;SDS011;4248;48.196;10.924;2024-03-29T14:32:55;2.97;;;1.50;;
8421;SDS011;4248;48.196;10.924;2024-03-29T14:35:21;5.17;;;2.00;;
8421;SDS011;4248;48.196;10.924;2024-03-29T14:37:47;3.43;;;1.20;;
8421;SDS011;4248;48.196;10.924;2024-03-29T14:40:13;4.40;;;1.23;;
8421;SDS011;4248;48.196;10.924;2024-03-29T14:42:43;2.57;;;1.30;;
8421;SDS011;4248;48.196;10.924;2024-03-29T14:45:09;3.20;;;1.30;;
8421;SDS011;4248;48.196;10.924;2024-03-29T14:47:38;4.17;;;1.40;;
8421;SDS011;4248;48.196;10.924;2024-03-29T14:50:04;2.20;;;1.00;;
8421;SDS011;4248;48.196;10.924;2024-03-29T14:52:32;2.90;;;1.30;;
8421;SDS011;4248;48.196;10.924;2024-03-29T14:54:59;4.33;;;1.30;;
8421;SDS011;4248;48.196;10.924;2024-03-29T14:57:24;2.87;;;1.10;;